Time;durP1;ratioP1;P1;durP2;ratioP2;P2;SDS_P1;SDS_P2;PMS_P1;PMS_P2;Temp;Humidity;BMP_temperature;BMP_pressure;BME280_temperature;BME280_humidity;BME280_pressure;Samples;Min_cycle;Max_cycle;Signal;HPM_P1;HPM_P2
2024/01/21 00:02:14;;;;;;;22.05;12.35;;;-3.30;65.50;;;;;;4944347;28;20078;-63
2024/01/21 00:04:40;;;;;;;24.25;13.10;;;-3.40;65.50;;;;;;4947690;28;20045;-63
2024/01/21 00:07:06;;;;;;;27.90;14.93;;;-3.40;65.50;;;;;;4944786;28;20486;-63
2024/01/21 00:09:31;;;;;;;29.90;14.73;;;-3.10;65.80;;;;;;4947105;28;20030;-63
2024/01/21 00:11:57;;;;;;;34.45;16.52;;;-3.40;65.60;;;;;;4943571;28;20036;-63
2024/01/21 00:14:23;;;;;;;28.42;15.13;;;-3.50;65.60;;;;;;4942568;28;20470;-64
2024/01/21 00:16:48;;;;;;;30.92;14.98;;;-3.50;65.70;;;;;;4947276;28;20035;-62
2024/01/21 00:19:14;;;;;;;26.00;14.30;;;-3.50;65.80;;;;;;4948260;28;20031;-63
2024/01/21 00:21:39;;;;;;;24.98;13.80;;;-3.50;65.80;;;;;;4944686;28;20023;-63
2024/01/21 00:24:05;;;;;;;26.38;13.52;;;-3.50;65.60;;;;;;4943141;28;20045;-62
2024/01/21 00:26:31;;;;;;;27.52;13.65;;;-3.60;65.40;;;;;;4946771;28;20027;-63
2024/01/21 00:29:00;;;;;;;26.15;14.98;;;-3.60;65.30;;;;;;4948246;28;20122;-61
2024/01/21 00:31:27;;;;;;;27.55;14.63;;;-3.60;65.30;;;;;;4944293;28;20646;-63
2024/01/21 00:33:53;;;;;;;29.27;15.20;;;-3.70;65.20;;;;;;4946139;28;20034;-63
2024/01/21 00:36:18;;;;;;;28.55;14.20;;;-3.70;65.20;;;;;;4941667;28;20035;-61
2024/01/21 00:38:44;;;;;;;26.08;13.98;;;-3.70;65.20;;;;;;4947935;28;20035;-61
2024/01/21 00:41:13;;;;;;;26.15;13.95;;;-3.80;65.00;;;;;;4944103;28;20424;-61
2024/01/21 00:43:39;;;;;;;23.70;12.88;;;-3.80;65.10;;;;;;4946622;28;20042;-63
2024/01/21 00:46:05;;;;;;;25.23;13.25;;;-3.90;65.20;;;;;;4877610;28;20023;-62
2024/01/21 00:48:31;;;;;;;26.52;14.57;;;-3.90;65.30;;;;;;4943883;28;20027;-63
2024/01/21 00:50:57;;;;;;;29.38;13.77;;;-3.90;65.50;;;;;;4947944;28;20606;-62
2024/01/21 00:53:23;;;;;;;30.58;15.13;;;-3.90;65.60;;;;;;4946845;28;20145;-62
2024/01/21 00:55:48;;;;;;;27.55;13.90;;;-3.80;65.80;;;;;;4945886;28;20463;-63
2024/01/21 00:58:14;;;;;;;30.73;14.00;;;-3.90;65.50;;;;;;4945799;28;20046;-61
2024/01/21 01:00:40;;;;;;;29.70;14.15;;;-3.60;65.70;;;;;;4944313;28;20518;-63
2024/01/21 01:03:05;;;;;;;26.05;13.95;;;-4.00;65.50;;;;;;4944653;28;20404;-62
2024/01/21 01:05:31;;;;;;;25.52;13.02;;;-4.00;65.70;;;;;;4947273;28;20051;-63
2024/01/21 01:07:57;;;;;;;27.10;13.35;;;-4.00;65.90;;;;;;4942675;28;20619;-63
2024/01/21 01:10:22;;;;;;;21.25;11.95;;;-4.00;66.00;;;;;;4949154;28;20437;-63
2024/01/21 01:12:48;;;;;;;23.63;12.05;;;-4.00;66.00;;;;;;4955132;28;20046;-61
2024/01/21 01:15:14;;;;;;;27.50;12.82;;;-4.00;65.90;;;;;;4935311;28;20039;-62
2024/01/21 01:17:39;;;;;;;29.25;13.82;;;-4.00;65.80;;;;;;4948325;28;20050;-63
2024/01/21 01:20:06;;;;;;;23.25;12.48;;;-4.00;65.70;;;;;;4948944;28;20062;-62
2024/01/21 01:22:31;;;;;;;29.02;13.35;;;-4.00;65.70;;;;;;4951608;28;20067;-62
2024/01/21 01:24:57;;;;;;;29.65;13.52;;;-4.00;65.70;;;;;;4947821;28;20355;-63
2024/01/21 01:27:24;;;;;;;28.80;14.45;;;-4.00;65.80;;;;;;4956089;28;20049;-61
2024/01/21 01:29:51;;;;;;;26.88;12.73;;;-4.00;66.00;;;;;;4947703;28;20055;-63
2024/01/21 01:32:16;;;;;;;23.63;12.13;;;-4.00;66.10;;;;;;4948770;28;20027;-63
2024/01/21 01:34:42;;;;;;;28.00;14.32;;;-4.00;66.00;;;;;;4950263;28;20036;-63
2024/01/21 01:37:11;;;;;;;29.77;14.60;;;-3.80;66.20;;;;;;4947211;28;20058;-63
2024/01/21 01:39:37;;;;;;;29.70;14.10;;;-4.00;66.00;;;;;;4951599;28;20031;-63
2024/01/21 01:42:03;;;;;;;27.77;13.80;;;-3.80;66.30;;;;;;4952241;28;20050;-63
2024/01/21 01:44:41;;;;;;;33.10;14.18;;;-4.00;66.20;;;;;;4933424;28;20023;-63
2024/01/21 01:47:09;;;;;;;24.30;12.18;;;-4.00;66.20;;;;;;4947939;28;20535;-62
2024/01/21 01:49:38;;;;;;;25.42;13.52;;;-4.00;66.20;;;;;;4949216;28;20046;-63
2024/01/21 01:52:05;;;;;;;26.65;12.70;;;-4.00;66.20;;;;;;4946426;28;20039;-62
2024/01/21 01:54:33;;;;;;;21.50;12.48;;;-4.10;66.00;;;;;;4950453;28;20438;-63
2024/01/21 01:57:01;;;;;;;24.55;14.75;;;-4.10;66.00;;;;;;4948642;28;20442;-63
2024/01/21 01:59:29;;;;;;;25.63;13.30;;;-3.80;66.10;;;;;;4947806;28;20027;-62
2024/01/21 02:01:56;;;;;;;25.35;13.25;;;-4.10;65.90;;;;;;4950469;28;20054;-61
2024/01/21 02:04:21;;;;;;;25.80;14.27;;;-4.10;65.90;;;;;;4950797;28;20133;-61
2024/01/21 02:06:48;;;;;;;33.33;14.82;;;-4.10;65.90;;;;;;4947693;28;20055;-64
2024/01/21 02:09:14;;;;;;;26.38;13.23;;;-4.10;65.80;;;;;;4949395;28;20042;-61
2024/01/21 02:11:39;;;;;;;24.38;12.55;;;-4.10;65.80;;;;;;4948434;28;20027;-63
2024/01/21 02:14:05;;;;;;;23.10;11.88;;;-4.10;65.90;;;;;;4951415;28;20053;-63
2024/01/21 02:16:31;;;;;;;23.33;12.82;;;-4.10;66.10;;;;;;4955462;28;20019;-61
2024/01/21 02:18:57;;;;;;;24.45;12.05;;;-4.00;66.30;;;;;;4947203;28;20035;-63
2024/01/21 02:21:23;;;;;;;20.45;10.55;;;-3.80;66.60;;;;;;4944597;28;20032;-62
2024/01/21 02:23:49;;;;;;;25.25;12.57;;;-4.10;66.40;;;;;;4949679;28;20043;-62
2024/01/21 02:26:14;;;;;;;20.27;10.88;;;-4.10;66.30;;;;;;4949511;28;20035;-63
2024/01/21 02:28:40;;;;;;;22.42;11.93;;;-4.10;66.20;;;;;;4950482;28;20081;-62
2024/01/21 02:31:06;;;;;;;25.15;12.95;;;-4.10;66.10;;;;;;4951996;28;20058;-61
2024/01/21 02:33:31;;;;;;;27.55;14.70;;;-4.20;66.00;;;;;;4950525;28;20046;-62
2024/01/21 02:35:57;;;;;;;26.02;13.70;;;-4.10;66.10;;;;;;4949031;28;20047;-62
2024/01/21 02:38:23;;;;;;;23.48;12.52;;;-4.20;66.00;;;;;;4950193;28;20118;-63
2024/01/21 02:40:48;;;;;;;22.17;13.05;;;-4.10;66.00;;;;;;4949140;28;20059;-62
2024/01/21 02:43:14;;;;;;;28.60;13.38;;;-4.20;65.90;;;;;;4945544;28;20908;-63
2024/01/21 02:45:42;;;;;;;26.77;12.30;;;-4.20;65.80;;;;;;4868165;28;20031;-62
2024/01/21 02:48:07;;;;;;;24.33;11.13;;;-4.20;65.80;;;;;;4945061;28;20399;-63
2024/01/21 02:50:33;;;;;;;20.70;10.77;;;-4.10;65.90;;;;;;4947753;28;20481;-63
2024/01/21 02:52:59;;;;;;;19.73;10.98;;;-4.30;65.90;;;;;;4951114;28;20115;-62
2024/01/21 02:55:24;;;;;;;22.15;12.55;;;-4.30;66.00;;;;;;4951184;28;20144;-61
2024/01/21 02:57:50;;;;;;;22.52;11.90;;;-4.30;66.10;;;;;;4949843;28;20106;-62
2024/01/21 03:00:16;;;;;;;24.20;11.82;;;-4.30;66.10;;;;;;4945133;28;20030;-63
2024/01/21 03:02:41;;;;;;;22.38;11.00;;;-4.30;65.90;;;;;;4948995;28;20398;-61
2024/01/21 03:05:07;;;;;;;23.23;12.00;;;-4.30;65.80;;;;;;4947113;28;20130;-63
2024/01/21 03:07:33;;;;;;;19.42;10.75;;;-4.30;65.70;;;;;;4942456;28;20055;-62
2024/01/21 03:09:58;;;;;;;21.13;11.10;;;-4.40;65.60;;;;;;4948845;28;20062;-62
2024/01/21 03:12:24;;;;;;;21.02;11.77;;;-4.40;65.40;;;;;;4954485;28;20035;-62
2024/01/21 03:14:50;;;;;;;21.70;11.73;;;-4.30;65.50;;;;;;4943019;28;20055;-62
2024/01/21 03:17:15;;;;;;;20.17;10.65;;;-4.50;65.30;;;;;;4947054;28;20109;-62
2024/01/21 03:19:41;;;;;;;19.80;10.32;;;-4.50;65.30;;;;;;4949279;28;20174;-62
2024/01/21 03:22:07;;;;;;;22.98;11.02;;;-4.50;65.50;;;;;;4947175;28;20827;-62
2024/01/21 03:24:33;;;;;;;22.25;10.10;;;-4.50;65.50;;;;;;4947060;28;20050;-62
2024/01/21 03:26:59;;;;;;;21.08;12.15;;;-4.50;65.60;;;;;;4952888;28;20029;-63
2024/01/21 03:29:25;;;;;;;19.52;11.20;;;-4.60;65.80;;;;;;4949458;28;20031;-61
2024/01/21 03:31:50;;;;;;;21.90;11.52;;;-4.60;66.00;;;;;;4944712;28;20794;-62
2024/01/21 03:34:16;;;;;;;18.45;10.75;;;-4.60;66.00;;;;;;4945014;28;20489;-62
2024/01/21 03:36:42;;;;;;;21.20;12.73;;;-4.60;66.00;;;;;;4944671;28;20050;-62
2024/01/21 03:39:07;;;;;;;25.25;12.95;;;-4.60;66.00;;;;;;4944426;28;20138;-63
2024/01/21 03:41:33;;;;;;;25.30;12.40;;;-4.60;66.10;;;;;;4945182;28;20024;-63
2024/01/21 03:43:59;;;;;;;20.42;11.27;;;-4.60;66.10;;;;;;4950889;28;20077;-63
2024/01/21 03:46:26;;;;;;;24.20;11.98;;;-4.60;66.10;;;;;;4867320;28;20539;-62
2024/01/21 03:48:51;;;;;;;23.48;11.88;;;-4.60;66.30;;;;;;4948823;28;20425;-62
2024/01/21 03:51:17;;;;;;;23.38;12.57;;;-4.50;66.50;;;;;;4951379;28;20045;-62
2024/01/21 03:53:43;;;;;;;23.85;11.95;;;-4.60;66.40;;;;;;4947573;28;20036;-62
2024/01/21 03:56:15;;;;;;;23.65;12.48;;;-4.50;66.40;;;;;;4947658;28;20057;-62
2024/01/21 03:58:41;;;;;;;18.00;10.20;;;-4.50;66.50;;;;;;4945966;28;20035;-62
2024/01/21 04:01:07;;;;;;;23.80;11.95;;;-4.50;66.50;;;;;;4944037;28;20074;-61
2024/01/21 04:03:33;;;;;;;23.48;12.30;;;-4.50;66.60;;;;;;4944842;28;20035;-62
2024/01/21 04:05:58;;;;;;;22.42;11.98;;;-4.50;66.50;;;;;;4952855;28;20134;-63
2024/01/21 04:08:24;;;;;;;24.25;13.70;;;-4.50;66.50;;;;;;4945881;28;20118;-61
2024/01/21 04:10:50;;;;;;;23.58;12.45;;;-4.50;66.30;;;;;;4946888;28;20106;-62
2024/01/21 04:13:17;;;;;;;24.25;12.18;;;-4.50;66.10;;;;;;4947589;28;20035;-61
2024/01/21 04:15:43;;;;;;;25.75;12.95;;;-4.50;66.10;;;;;;4945669;28;20145;-62
2024/01/21 04:18:08;;;;;;;27.27;12.50;;;-4.50;66.10;;;;;;4944015;28;20537;-61
2024/01/21 04:20:34;;;;;;;26.92;11.82;;;-4.50;66.20;;;;;;4947554;28;20030;-61
2024/01/21 04:22:59;;;;;;;25.27;12.25;;;-4.50;66.30;;;;;;4944487;28;20098;-63
2024/01/21 04:25:25;;;;;;;22.02;10.93;;;-4.50;66.20;;;;;;4945259;28;20038;-63
2024/01/21 04:27:51;;;;;;;23.38;11.23;;;-4.50;66.00;;;;;;4941745;28;20031;-63
2024/01/21 04:30:16;;;;;;;19.70;10.52;;;-4.60;65.80;;;;;;4946281;28;20027;-63
2024/01/21 04:32:42;;;;;;;23.77;11.50;;;-4.60;65.70;;;;;;4949562;28;20027;-63
2024/01/21 04:35:08;;;;;;;20.30;11.38;;;-4.60;65.70;;;;;;4951196;28;20043;-62
2024/01/21 04:37:34;;;;;;;24.20;11.95;;;-4.60;65.80;;;;;;4943087;28;20105;-63
2024/01/21 04:39:59;;;;;;;23.77;10.95;;;-4.60;65.80;;;;;;4951732;28;20035;-63
2024/01/21 04:42:26;;;;;;;24.45;11.40;;;-4.70;65.70;;;;;;4942531;28;20129;-63
2024/01/21 04:44:51;;;;;;;20.92;11.10;;;-4.70;65.50;;;;;;4858625;28;20538;-61
2024/01/21 04:47:17;;;;;;;23.48;10.45;;;-4.70;65.30;;;;;;4952198;28;20038;-63
2024/01/21 04:49:43;;;;;;;20.33;10.65;;;-4.70;65.30;;;;;;4946234;28;20031;-61
2024/01/21 04:52:08;;;;;;;24.95;11.38;;;-4.80;65.20;;;;;;4949849;28;20043;-63
2024/01/21 04:54:34;;;;;;;22.15;11.25;;;-4.80;65.40;;;;;;4949084;28;20031;-63
2024/01/21 04:57:00;;;;;;;21.17;10.88;;;-4.80;65.60;;;;;;4943837;28;20180;-63
2024/01/21 04:59:25;;;;;;;20.30;10.85;;;-4.90;65.70;;;;;;4946127;28;20038;-62
2024/01/21 05:01:51;;;;;;;22.17;10.57;;;-4.90;65.70;;;;;;4943225;28;21113;-62
2024/01/21 05:04:17;;;;;;;25.38;11.13;;;-4.90;66.00;;;;;;4952139;28;20054;-63
2024/01/21 05:06:43;;;;;;;17.42;10.55;;;-4.80;66.30;;;;;;4945444;28;20082;-61
2024/01/21 05:09:10;;;;;;;19.30;10.98;;;-4.80;66.60;;;;;;4948844;28;20046;-63
2024/01/21 05:11:37;;;;;;;24.38;12.10;;;-4.80;66.60;;;;;;4951391;28;20405;-63
2024/01/21 05:14:03;;;;;;;21.33;11.38;;;-4.70;66.70;;;;;;4945301;28;20090;-63
2024/01/21 05:16:29;;;;;;;23.00;11.50;;;-4.70;66.70;;;;;;4938724;28;20465;-63
2024/01/21 05:18:56;;;;;;;22.52;11.45;;;-4.70;66.70;;;;;;4944632;28;20036;-63
2024/01/21 05:21:22;;;;;;;21.48;11.30;;;-4.60;66.80;;;;;;4945041;28;20114;-64
2024/01/21 05:23:51;;;;;;;21.15;10.95;;;-4.60;66.80;;;;;;4943836;28;20423;-63
2024/01/21 05:26:17;;;;;;;21.83;12.73;;;-4.50;66.90;;;;;;4945019;28;20104;-62
2024/01/21 05:28:44;;;;;;;22.40;12.32;;;-4.50;66.90;;;;;;4953752;28;20031;-63
2024/01/21 05:31:10;;;;;;;21.17;12.30;;;-4.50;67.00;;;;;;4941018;28;20038;-63
2024/01/21 05:33:35;;;;;;;20.58;11.40;;;-4.40;67.10;;;;;;4947024;28;20410;-62
2024/01/21 05:36:01;;;;;;;20.67;10.15;;;-4.40;67.10;;;;;;4947706;28;20747;-62
2024/01/21 05:38:27;;;;;;;19.40;10.85;;;-4.30;67.30;;;;;;4943552;28;20430;-62
2024/01/21 05:40:53;;;;;;;21.95;11.65;;;-4.30;67.30;;;;;;4941551;28;20069;-61
2024/01/21 05:43:18;;;;;;;22.67;11.45;;;-4.20;67.40;;;;;;4953128;28;20055;-62
2024/01/21 05:45:46;;;;;;;22.08;11.95;;;-4.20;67.40;;;;;;4888597;28;20160;-62
2024/01/21 05:48:11;;;;;;;29.40;13.20;;;-4.20;67.40;;;;;;4929870;28;20045;-63
2024/01/21 05:50:37;;;;;;;27.75;13.43;;;-4.10;67.60;;;;;;4948805;28;20042;-63
2024/01/21 05:53:05;;;;;;;28.73;13.77;;;-4.00;68.00;;;;;;4941943;28;20027;-62
2024/01/21 05:55:31;;;;;;;28.80;14.10;;;-4.00;68.20;;;;;;4948824;28;20055;-62
2024/01/21 05:57:57;;;;;;;23.75;12.40;;;-4.00;68.30;;;;;;4945300;28;20074;-62
2024/01/21 06:00:23;;;;;;;30.83;13.90;;;-3.90;68.40;;;;;;4945968;28;20054;-63
2024/01/21 06:02:51;;;;;;;28.17;13.68;;;-3.90;68.30;;;;;;4950599;28;20049;-63
2024/01/21 06:05:16;;;;;;;28.48;13.65;;;-3.80;68.50;;;;;;4953886;28;20051;-63
2024/01/21 06:07:42;;;;;;;27.65;14.60;;;-3.80;68.30;;;;;;4953649;28;20090;-63
2024/01/21 06:10:08;;;;;;;31.67;14.77;;;-3.70;68.40;;;;;;4948746;28;20027;-62
2024/01/21 06:12:34;;;;;;;27.85;15.07;;;-3.70;68.20;;;;;;4948815;28;20042;-63
2024/01/21 06:14:59;;;;;;;31.90;15.52;;;-3.70;68.30;;;;;;4940957;28;20035;-62
2024/01/21 06:17:25;;;;;;;31.08;15.25;;;-3.60;68.50;;;;;;4953060;28;20039;-62
2024/01/21 06:19:51;;;;;;;27.33;14.35;;;-3.60;68.60;;;;;;4950790;28;20027;-63
2024/01/21 06:22:16;;;;;;;29.73;15.35;;;-3.50;68.50;;;;;;4931711;28;20579;-63
2024/01/21 06:24:42;;;;;;;28.38;13.75;;;-3.50;68.60;;;;;;4946181;28;20038;-62
2024/01/21 06:27:08;;;;;;;29.67;14.20;;;-3.50;68.70;;;;;;4953368;28;20050;-63
2024/01/21 06:29:33;;;;;;;32.72;15.60;;;-3.50;68.70;;;;;;4951387;28;20034;-63
2024/01/21 06:31:59;;;;;;;26.60;14.95;;;-3.40;68.80;;;;;;4947215;28;20054;-63
2024/01/21 06:34:25;;;;;;;29.73;16.05;;;-3.40;68.80;;;;;;4949051;28;20066;-62
2024/01/21 06:36:50;;;;;;;34.60;15.70;;;-3.40;68.80;;;;;;4948142;28;20039;-62
2024/01/21 06:39:16;;;;;;;36.75;16.23;;;-3.40;68.80;;;;;;4950947;28;20037;-62
2024/01/21 06:41:42;;;;;;;30.98;15.98;;;-3.30;68.80;;;;;;4949091;28;20447;-63
2024/01/21 06:44:07;;;;;;;35.55;16.48;;;-3.20;68.80;;;;;;4947540;28;20102;-62
2024/01/21 06:46:34;;;;;;;38.38;17.10;;;-3.20;68.80;;;;;;4897633;28;20049;-62
2024/01/21 06:49:00;;;;;;;33.65;17.02;;;-3.20;68.80;;;;;;4949873;28;20065;-62
2024/01/21 06:51:34;;;;;;;36.30;16.75;;;-3.20;68.80;;;;;;4948258;28;20115;-62
2024/01/21 06:54:03;;;;;;;;;;;-3.20;68.90;;;;;;4951813;28;20482;-63
2024/01/21 06:56:28;;;;;;;29.48;15.30;;;-3.10;69.40;;;;;;4947028;28;19918;-63
2024/01/21 06:58:54;;;;;;;30.77;15.80;;;-3.10;68.70;;;;;;4948323;28;20544;-63
2024/01/21 07:01:20;;;;;;;38.45;18.05;;;-3.10;68.70;;;;;;4944440;28;20051;-62
2024/01/21 07:03:46;;;;;;;32.58;16.35;;;-3.00;68.80;;;;;;4952524;28;20760;-61
2024/01/21 07:06:12;;;;;;;39.97;19.65;;;-3.00;68.70;;;;;;4951083;28;20073;-64
2024/01/21 07:08:38;;;;;;;48.60;22.85;;;-3.00;68.70;;;;;;4958007;28;20082;-63
2024/01/21 07:11:10;;;;;;;33.78;18.83;;;-2.90;68.70;;;;;;4952205;28;20126;-62
2024/01/21 07:13:35;;;;;;;33.67;18.35;;;-2.90;68.60;;;;;;4945890;28;20651;-63
2024/01/21 07:16:02;;;;;;;34.65;17.00;;;-2.90;68.50;;;;;;4947011;28;20134;-61
2024/01/21 07:18:27;;;;;;;40.00;18.58;;;-2.90;68.60;;;;;;4945033;28;20460;-63
2024/01/21 07:20:53;;;;;;;32.05;16.50;;;-2.90;68.60;;;;;;4951777;28;20565;-63
2024/01/21 07:23:19;;;;;;;41.28;18.95;;;-2.60;68.80;;;;;;4951767;28;20541;-65
2024/01/21 07:25:46;;;;;;;41.28;19.52;;;-2.80;68.60;;;;;;4946330;28;20405;-63
2024/01/21 07:28:12;;;;;;;40.38;18.77;;;-2.60;68.70;;;;;;4943309;28;20443;-64
2024/01/21 07:30:38;;;;;;;39.25;18.58;;;-2.80;68.60;;;;;;4943422;28;20035;-64
2024/01/21 07:33:04;;;;;;;38.03;19.27;;;-2.70;68.60;;;;;;4950862;28;20038;-65
2024/01/21 07:35:29;;;;;;;40.13;19.75;;;-2.70;68.50;;;;;;4943809;28;20115;-63
2024/01/21 07:37:55;;;;;;;41.13;20.13;;;-2.70;68.30;;;;;;4925757;29;20562;-63
2024/01/21 07:40:22;;;;;;;47.15;21.60;;;-2.60;68.30;;;;;;4937950;29;20031;-64
2024/01/21 07:42:47;;;;;;;48.08;22.10;;;-2.60;68.30;;;;;;4950843;28;20026;-64
2024/01/21 07:45:14;;;;;;;49.58;24.15;;;-2.60;68.40;;;;;;4854814;28;20030;-64
2024/01/21 07:47:40;;;;;;;45.25;21.48;;;-2.50;68.50;;;;;;4950497;28;20034;-64
2024/01/21 07:50:07;;;;;;;42.10;20.55;;;-2.50;68.50;;;;;;4948596;28;20494;-63
2024/01/21 07:52:32;;;;;;;44.38;21.05;;;-2.40;68.50;;;;;;4940518;28;20155;-63
2024/01/21 07:54:58;;;;;;;41.78;20.48;;;-2.40;68.50;;;;;;4947409;28;20031;-63
2024/01/21 07:57:24;;;;;;;39.92;19.65;;;-2.40;68.50;;;;;;4945318;28;20045;-64
2024/01/21 07:59:49;;;;;;;44.55;20.60;;;-2.20;68.70;;;;;;4951523;28;20092;-64
2024/01/21 08:02:16;;;;;;;39.33;19.52;;;-2.20;68.70;;;;;;4945994;28;20137;-63
2024/01/21 08:04:42;;;;;;;41.55;19.63;;;-2.10;68.80;;;;;;4948577;28;20047;-63
2024/01/21 08:07:08;;;;;;;39.42;19.00;;;-2.20;68.70;;;;;;4946148;28;20114;-61
2024/01/21 08:09:34;;;;;;;41.35;19.88;;;-1.90;68.90;;;;;;4940349;28;20035;-61
2024/01/21 08:12:00;;;;;;;38.10;19.48;;;-1.80;68.80;;;;;;4948350;28;20031;-64
2024/01/21 08:14:26;;;;;;;43.80;19.42;;;-2.00;68.50;;;;;;4927964;29;20035;-63
2024/01/21 08:16:52;;;;;;;42.78;20.30;;;-2.00;68.50;;;;;;4940391;28;20031;-63
2024/01/21 08:19:19;;;;;;;44.92;19.95;;;-1.90;68.50;;;;;;4925741;28;20397;-65
2024/01/21 08:21:46;;;;;;;40.83;19.73;;;-1.90;68.60;;;;;;4948163;28;20654;-65
2024/01/21 08:24:12;;;;;;;42.78;19.02;;;-1.80;68.70;;;;;;4944333;28;20039;-63
2024/01/21 08:26:38;;;;;;;40.60;18.65;;;-1.70;68.80;;;;;;4941436;28;20078;-64
2024/01/21 08:29:04;;;;;;;44.30;21.05;;;-1.60;68.80;;;;;;4943810;28;20031;-64
2024/01/21 08:31:30;;;;;;;35.03;18.40;;;-1.60;68.80;;;;;;4942603;28;20090;-62
2024/01/21 08:33:56;;;;;;;39.97;19.23;;;-1.60;68.80;;;;;;4946845;28;20095;-63
2024/01/21 08:36:21;;;;;;;41.17;21.05;;;-1.20;68.80;;;;;;4952097;28;20090;-64
2024/01/21 08:38:47;;;;;;;31.50;18.25;;;-1.40;68.70;;;;;;4945506;28;20402;-63
2024/01/21 08:41:13;;;;;;;38.50;18.92;;;-1.30;68.80;;;;;;4947069;28;20030;-64
2024/01/21 08:43:38;;;;;;;33.92;17.65;;;-1.30;68.70;;;;;;4945776;28;20031;-64
2024/01/21 08:46:04;;;;;;;33.97;17.25;;;-1.20;68.70;;;;;;4866905;28;20063;-62
2024/01/21 08:48:30;;;;;;;30.23;16.35;;;-1.20;68.60;;;;;;4944006;28;20106;-64
2024/01/21 08:50:57;;;;;;;27.75;15.98;;;-1.00;68.70;;;;;;4949244;28;20109;-64
2024/01/21 08:53:23;;;;;;;41.33;20.30;;;-1.00;68.70;;;;;;4950422;28;20042;-63
2024/01/21 08:55:48;;;;;;;37.33;20.85;;;-0.90;68.80;;;;;;4945941;28;20023;-63
2024/01/21 08:58:14;;;;;;;31.55;17.65;;;-0.80;68.70;;;;;;4945089;28;20102;-62
2024/01/21 09:00:40;;;;;;;34.22;18.17;;;-0.80;68.60;;;;;;4948915;28;20506;-64
2024/01/21 09:03:05;;;;;;;28.40;16.75;;;-0.70;68.50;;;;;;4950628;28;20516;-63
2024/01/21 09:05:31;;;;;;;32.75;17.02;;;-0.60;68.40;;;;;;4946226;28;20472;-64
2024/01/21 09:07:57;;;;;;;31.10;17.05;;;-0.60;68.30;;;;;;4947714;28;20043;-63
2024/01/21 09:10:22;;;;;;;28.25;15.40;;;-0.40;68.50;;;;;;4945175;28;20128;-63
2024/01/21 09:12:48;;;;;;;28.08;16.13;;;-0.40;68.50;;;;;;4946951;28;20031;-64
2024/01/21 09:15:14;;;;;;;29.88;16.67;;;-0.30;68.50;;;;;;4951390;28;20035;-63
2024/01/21 09:17:41;;;;;;;29.90;16.17;;;-0.20;68.40;;;;;;4946277;28;21153;-62
2024/01/21 09:20:07;;;;;;;31.15;17.15;;;-0.10;68.60;;;;;;4952158;28;20028;-64
2024/01/21 09:22:33;;;;;;;35.33;15.57;;;-0.10;68.60;;;;;;4944251;28;20034;-64
2024/01/21 09:24:59;;;;;;;30.70;16.63;;;0.10;68.80;;;;;;4925770;29;20442;-64
2024/01/21 09:27:25;;;;;;;30.20;15.18;;;0.20;68.70;;;;;;4942650;28;20047;-63
2024/01/21 09:29:50;;;;;;;29.88;16.77;;;0.50;68.70;;;;;;4944925;28;20027;-63
2024/01/21 09:32:17;;;;;;;42.78;25.50;;;0.40;69.20;;;;;;4946824;28;20039;-62
2024/01/21 09:34:43;;;;;;;37.90;20.88;;;0.60;68.50;;;;;;4949226;28;20382;-63
2024/01/21 09:37:09;;;;;;;35.35;19.40;;;0.70;68.30;;;;;;4951826;28;20114;-62
2024/01/21 09:39:37;;;;;;;32.38;17.38;;;0.80;68.40;;;;;;4946203;28;20520;-65
2024/01/21 09:42:09;;;;;;;27.05;16.55;;;0.90;68.50;;;;;;4948916;28;20463;-63
2024/01/21 09:44:36;;;;;;;36.35;18.40;;;1.00;68.30;;;;;;4945585;28;20577;-62
2024/01/21 09:47:02;;;;;;;29.20;16.73;;;1.10;68.20;;;;;;4949083;28;20043;-63
2024/01/21 09:49:28;;;;;;;34.10;17.35;;;1.20;68.20;;;;;;4947270;28;20027;-64
2024/01/21 09:51:55;;;;;;;38.20;22.35;;;1.40;68.10;;;;;;4950372;28;20034;-65
2024/01/21 09:54:22;;;;;;;39.65;22.38;;;1.50;68.10;;;;;;4942276;28;20041;-63
2024/01/21 09:56:48;;;;;;;32.95;19.20;;;1.60;68.20;;;;;;4948447;28;20038;-64
2024/01/21 09:59:16;;;;;;;36.75;20.48;;;1.70;68.20;;;;;;4931576;28;20043;-63
2024/01/21 10:01:42;;;;;;;30.80;18.83;;;1.80;68.10;;;;;;4948922;28;20027;-64
2024/01/21 10:04:09;;;;;;;32.40;18.67;;;2.00;68.00;;;;;;4949162;28;20054;-63
2024/01/21 10:06:35;;;;;;;26.48;15.25;;;2.10;68.00;;;;;;4951483;28;20058;-63
2024/01/21 10:09:10;;;;;;;25.13;15.90;;;2.20;67.90;;;;;;4954035;28;20090;-66
2024/01/21 10:11:37;;;;;;;25.42;16.13;;;2.30;67.60;;;;;;4952932;28;20447;-63
2024/01/21 10:14:02;;;;;;;23.45;13.95;;;2.40;67.40;;;;;;4942216;28;20035;-65
2024/01/21 10:16:28;;;;;;;22.63;13.80;;;2.50;67.20;;;;;;4947017;28;20035;-63
2024/01/21 10:18:54;;;;;;;22.23;13.25;;;2.50;67.00;;;;;;4951856;28;20039;-63
2024/01/21 10:21:20;;;;;;;25.92;13.00;;;2.60;66.90;;;;;;4945556;28;20058;-65
2024/01/21 10:23:48;;;;;;;21.30;12.82;;;2.60;66.80;;;;;;4951045;28;20111;-63
2024/01/21 10:26:15;;;;;;;20.50;12.82;;;2.70;66.80;;;;;;4947169;28;20078;-63
2024/01/21 10:28:41;;;;;;;20.00;12.75;;;2.70;66.70;;;;;;4947617;28;20829;-64
2024/01/21 10:31:07;;;;;;;21.38;13.82;;;2.70;66.50;;;;;;4946608;28;20027;-64
2024/01/21 10:33:33;;;;;;;23.92;14.85;;;2.70;66.60;;;;;;4949566;28;20077;-64
2024/01/21 10:36:02;;;;;;;25.05;14.23;;;2.70;66.60;;;;;;4948649;28;20055;-63
2024/01/21 10:38:41;;;;;;;26.50;14.68;;;2.70;66.60;;;;;;4952258;28;20479;-64
2024/01/21 10:41:09;;;;;;;28.30;14.23;;;2.80;66.60;;;;;;4949044;28;20509;-64
2024/01/21 10:43:36;;;;;;;28.23;15.10;;;2.80;66.70;;;;;;4951140;28;20038;-64
2024/01/21 10:46:04;;;;;;;24.13;14.23;;;2.80;66.70;;;;;;4895917;28;20027;-62
2024/01/21 10:48:32;;;;;;;23.20;14.07;;;2.80;66.70;;;;;;4952743;28;20027;-64
2024/01/21 10:50:57;;;;;;;24.25;13.85;;;2.80;66.70;;;;;;4949371;28;20432;-63
2024/01/21 10:53:24;;;;;;;23.40;14.35;;;2.90;66.70;;;;;;4947016;28;20027;-62
2024/01/21 10:55:51;;;;;;;20.70;13.50;;;2.90;66.60;;;;;;4944576;28;20111;-63
2024/01/21 10:58:17;;;;;;;25.77;16.42;;;2.90;66.60;;;;;;4946721;28;20050;-64
2024/01/21 11:00:44;;;;;;;25.77;16.58;;;3.00;66.70;;;;;;4946623;28;20032;-65
2024/01/21 11:03:29;;;;;;;27.50;17.55;;;3.00;66.80;;;;;;4947887;28;20027;-66
2024/01/21 11:06:03;;;;;;;27.50;16.77;;;3.10;66.50;;;;;;4947569;28;20818;-63
2024/01/21 11:08:29;;;;;;;26.90;15.82;;;3.10;66.60;;;;;;4953027;28;20039;-64
2024/01/21 11:11:08;;;;;;;29.20;16.30;;;3.20;66.70;;;;;;4950374;28;20477;-63
2024/01/21 11:13:43;;;;;;;21.88;13.40;;;3.20;66.50;;;;;;4945191;28;20031;-64
2024/01/21 11:16:28;;;;;;;56.85;29.88;;;3.30;66.50;;;;;;4945373;28;20034;-63
2024/01/21 11:18:56;;;;;;;40.65;22.75;;;3.40;66.30;;;;;;4951829;28;20446;-64
2024/01/21 11:21:24;;;;;;;41.58;23.80;;;3.40;66.30;;;;;;4946600;28;20042;-64
2024/01/21 11:24:01;;;;;;;32.00;18.13;;;3.50;66.30;;;;;;4943136;28;20039;-64
2024/01/21 11:26:32;;;;;;;30.60;16.95;;;3.50;66.20;;;;;;4941284;28;20039;-64
2024/01/21 11:28:59;;;;;;;29.73;17.33;;;3.60;66.20;;;;;;4945640;28;20032;-64
2024/01/21 11:31:26;;;;;;;26.20;16.63;;;3.70;66.10;;;;;;4945197;28;20025;-64
2024/01/21 11:34:05;;;;;;;26.45;14.38;;;3.80;66.10;;;;;;4947638;28;20718;-65
2024/01/21 11:36:33;;;;;;;18.48;11.50;;;3.90;65.40;;;;;;4942068;28;20429;-64
2024/01/21 11:39:01;;;;;;;27.27;12.60;;;3.90;65.80;;;;;;4944607;28;20047;-63
2024/01/21 11:41:41;;;;;;;24.52;13.10;;;4.00;65.80;;;;;;4949728;28;20023;-63
2024/01/21 11:44:22;;;;;;;18.95;10.90;;;4.10;65.60;;;;;;4943703;28;20031;-65
2024/01/21 11:46:49;;;;;;;20.55;12.98;;;4.20;65.60;;;;;;4943718;28;20050;-64
2024/01/21 11:49:15;;;;;;;22.58;13.38;;;4.30;65.30;;;;;;4945140;28;20650;-64
2024/01/21 11:51:41;;;;;;;18.92;12.05;;;4.30;65.00;;;;;;4946878;28;20063;-65
2024/01/21 11:54:07;;;;;;;20.42;12.43;;;4.40;65.00;;;;;;4945891;28;20043;-65
2024/01/21 11:56:35;;;;;;;20.00;11.88;;;4.40;64.90;;;;;;4938391;28;20093;-65
2024/01/21 11:59:01;;;;;;;21.92;13.00;;;4.50;64.90;;;;;;4941415;28;20565;-64
2024/01/21 12:01:27;;;;;;;20.45;12.32;;;4.60;64.80;;;;;;4940408;28;20110;-64
2024/01/21 12:03:56;;;;;;;16.95;11.43;;;4.60;64.60;;;;;;4947375;28;20058;-64
2024/01/21 12:06:23;;;;;;;18.13;11.98;;;4.70;64.50;;;;;;4946339;28;20035;-64
2024/01/21 12:08:49;;;;;;;14.57;10.27;;;4.70;64.40;;;;;;4953434;28;20031;-65
2024/01/21 12:11:18;;;;;;;16.77;10.93;;;4.80;64.30;;;;;;4948042;28;20042;-64
2024/01/21 12:13:44;;;;;;;17.85;11.65;;;4.80;64.30;;;;;;4949084;28;20038;-63
2024/01/21 12:16:11;;;;;;;17.58;11.25;;;4.90;63.90;;;;;;4943753;28;20035;-65
2024/01/21 12:18:44;;;;;;;31.13;17.23;;;4.90;64.00;;;;;;4948589;28;20411;-65
2024/01/21 12:21:14;;;;;;;20.30;12.30;;;4.90;63.50;;;;;;4946124;28;20122;-65
2024/01/21 12:23:44;;;;;;;19.45;12.50;;;4.90;63.60;;;;;;4949064;28;20034;-64
2024/01/21 12:26:17;;;;;;;20.10;12.43;;;5.00;63.40;;;;;;4931757;28;20046;-63
2024/01/21 12:28:58;;;;;;;17.45;11.90;;;5.00;63.20;;;;;;4945507;28;20030;-65